»·PEaware :: DAL363 KPDX-KBZN

DAL363 :: KPDX-KBZN

FLIGHT INFORMATION

Flight Status: Arrived
Operator:
Delta Air Lines
More flights by this operator :: More flights under this callsign
Pilot: Anonymous 13704 (13704)
Aircraft: AIRBUS A320
(A320)
More flights by this aircraft type
Origin: KPDX Portland Intl
United States
Destination: KBZN Gallatin
United States
More flights between these airports :: More routes between these airports
Route: LAVAA6 PDT WEDAK HEBIV THESE FALIA
File this flight plan on PilotEdge
Remarks:
Altitude:
(Current/Filed)
35,000ft
Speed:
(Current/Filed)
450kts
Departed: 15-Jul-20 02:02 PM
Arrived: 15-Jul-20 03:13 PM
Distance/Time
Traveled:
479nm/1:11
Distance/Time
To Go:
Arrived

Flight Plot

Page will automatically refresh every two minutes.


Map Options




Map Legend


Flown Route
Filed Route
Departure Airport
Arrival Airport
Navaid (VOR, NDB)
Fix

Horizontal Profiles

Position Reports

Time Latitude Longitude Heading Altitude Ground
Speed
15-Jul-20 13:38 45.588993 -122.597958 14 44ft 0kts
15-Jul-20 13:39 45.588993 -122.597958 14 44ft 0kts
15-Jul-20 13:40 45.588993 -122.597958 14 44ft 0kts
15-Jul-20 13:41 45.588993 -122.597958 14 44ft 0kts
15-Jul-20 13:42 45.588993 -122.597958 14 44ft 0kts
15-Jul-20 13:43 45.588993 -122.597958 14 44ft 0kts
15-Jul-20 13:44 45.588579 -122.598123 15 44ft 2kts
15-Jul-20 13:45 45.588145 -122.598109 298 44ft 0kts
15-Jul-20 13:46 45.588145 -122.598109 298 44ft 0kts
15-Jul-20 13:47 45.588160 -122.598149 298 44ft 0kts
15-Jul-20 13:48 45.588164 -122.598159 298 44ft 0kts
15-Jul-20 13:49 45.588991 -122.597959 14 44ft 0kts
15-Jul-20 13:50 45.588992 -122.597958 14 44ft 0kts
15-Jul-20 13:51 45.588992 -122.597958 14 44ft 0kts
15-Jul-20 13:52 45.588992 -122.597958 14 44ft 0kts
15-Jul-20 13:53 45.588695 -122.598034 1 44ft 2kts
15-Jul-20 13:54 45.587976 -122.597640 301 44ft 2kts
15-Jul-20 13:55 45.587950 -122.597582 298 44ft 0kts
15-Jul-20 13:56 45.587951 -122.597583 298 44ft 0kts
15-Jul-20 13:57 45.588098 -122.597972 298 44ft 5kts
15-Jul-20 13:58 45.589373 -122.601233 299 44ft 14kts
15-Jul-20 13:59 45.592158 -122.600749 44 44ft 16kts
15-Jul-20 14:00 45.594243 -122.597808 45 44ft 2kts
15-Jul-20 14:01 45.593939 -122.593330 116 44ft 65kts
15-Jul-20 14:02 45.575773 -122.536013 95 1778ft 188kts
15-Jul-20 14:03 45.563556 -122.448826 104 4026ft 256kts
15-Jul-20 14:04 45.545392 -122.343175 92 7345ft 285kts
15-Jul-20 14:05 45.588026 -122.252510 41 10531ft 295kts
15-Jul-20 14:06 45.648679 -122.158242 53 12866ft 341kts
15-Jul-20 14:07 45.690137 -122.031236 63 15630ft 362kts
15-Jul-20 14:08 45.733450 -121.897238 62 18078ft 379kts
15-Jul-20 14:09 45.746212 -121.745309 90 20335ft 399kts
15-Jul-20 14:10 45.745404 -121.584339 89 22389ft 411kts
15-Jul-20 14:11 45.744129 -121.418130 89 24276ft 422kts
15-Jul-20 14:12 45.742769 -121.248257 90 26013ft 432kts
15-Jul-20 14:13 45.741027 -121.074384 90 27606ft 441kts
15-Jul-20 14:14 45.739013 -120.897166 90 29035ft 450kts
15-Jul-20 14:15 45.736666 -120.716360 90 30325ft 458kts
15-Jul-20 14:16 45.734001 -120.532738 90 31500ft 465kts
15-Jul-20 14:17 45.730993 -120.347408 90 32840ft 465kts
15-Jul-20 14:18 45.727720 -120.162806 90 33961ft 468kts
15-Jul-20 14:19 45.724071 -119.975215 90 34860ft 470kts
15-Jul-20 14:20 45.720182 -119.789605 90 35061ft 470kts
15-Jul-20 14:21 45.715931 -119.602413 90 35059ft 471kts
15-Jul-20 14:22 45.711362 -119.414361 91 35058ft 473kts
15-Jul-20 14:23 45.706483 -119.226184 91 35057ft 474kts
15-Jul-20 14:24 45.701273 -119.037474 91 35069ft 476kts
15-Jul-20 14:25 45.703247 -118.848419 83 35095ft 477kts
15-Jul-20 14:26 45.715187 -118.659324 84 35104ft 478kts
15-Jul-20 14:27 45.725779 -118.469675 83 35136ft 478kts
15-Jul-20 14:28 45.736349 -118.279886 83 35170ft 479kts
15-Jul-20 14:29 45.746583 -118.089764 84 35171ft 479kts
15-Jul-20 14:30 45.756511 -117.899382 84 35143ft 479kts
15-Jul-20 14:31 45.766136 -117.708674 84 35126ft 480kts
15-Jul-20 14:32 45.775448 -117.517661 84 35124ft 480kts
15-Jul-20 14:33 45.784433 -117.326932 84 35123ft 481kts
15-Jul-20 14:35 45.793140 -117.135387 84 35122ft 481kts
15-Jul-20 14:36 45.801527 -116.943502 84 35141ft 482kts
15-Jul-20 14:37 45.809593 -116.751729 84 35158ft 483kts
15-Jul-20 14:38 45.817368 -116.558860 84 35171ft 484kts
15-Jul-20 14:39 45.824827 -116.366074 84 35185ft 484kts
15-Jul-20 14:40 45.831958 -116.173209 84 35192ft 484kts
15-Jul-20 14:41 45.838754 -115.980469 85 35193ft 484kts
15-Jul-20 14:42 45.845231 -115.787749 85 35176ft 484kts
15-Jul-20 14:43 45.851412 -115.594000 85 35149ft 485kts
15-Jul-20 14:44 45.857239 -115.401128 85 35108ft 485kts
15-Jul-20 14:45 45.862767 -115.207201 85 35106ft 487kts
15-Jul-20 14:46 45.867970 -115.013188 86 35114ft 487kts
15-Jul-20 14:47 45.872854 -114.818709 86 35125ft 488kts
15-Jul-20 14:48 45.877414 -114.624111 86 35135ft 488kts
15-Jul-20 14:49 45.881629 -114.429205 86 35142ft 488kts
15-Jul-20 14:50 45.885541 -114.234374 86 35147ft 489kts
15-Jul-20 14:51 45.889164 -114.039780 86 35152ft 489kts
15-Jul-20 14:52 45.894390 -113.844866 85 35008ft 489kts
15-Jul-20 14:52 45.897887 -113.682549 85 34191ft 488kts
15-Jul-20 14:54 45.902802 -113.455140 86 32888ft 489kts
15-Jul-20 14:54 45.905949 -113.293099 85 30630ft 483kts
15-Jul-20 14:55 45.909410 -113.101950 86 28003ft 473kts
15-Jul-20 14:57 45.912936 -112.884751 86 24943ft 460kts
15-Jul-20 14:57 45.915120 -112.734737 87 24223ft 449kts
15-Jul-20 14:58 45.917504 -112.555282 87 24222ft 448kts
15-Jul-20 14:59 45.919537 -112.379586 87 22037ft 435kts
15-Jul-20 15:00 45.921281 -112.208923 87 19707ft 420kts
15-Jul-20 15:01 45.922698 -112.045150 88 18093ft 391kts
15-Jul-20 15:02 45.923792 -111.894480 88 16740ft 367kts
15-Jul-20 15:03 45.924647 -111.753804 88 15216ft 337kts
15-Jul-20 15:04 45.936057 -111.625672 78 13709ft 313kts
15-Jul-20 15:05 45.949563 -111.507939 79 12280ft 286kts
15-Jul-20 15:06 45.960409 -111.397061 81 10348ft 275kts
15-Jul-20 15:07 45.962272 -111.292894 124 8339ft 250kts
15-Jul-20 15:08 45.910602 -111.254232 156 7736ft 188kts
15-Jul-20 15:09 45.862240 -111.243294 176 6326ft 168kts
15-Jul-20 15:10 45.822491 -111.214673 136 5338ft 162kts
15-Jul-20 15:11 45.790846 -111.170287 136 4577ft 158kts
15-Jul-20 15:12 45.775056 -111.149434 214 4485ft 13kts
15-Jul-20 15:13 45.775658 -111.153273 317 4485ft 14kts
15-Jul-20 15:14 45.778389 -111.157197 281 4485ft 3kts

Navigation Log

Ident Type
Flight plan parsing failed, navigation log unavailable